Time;durP1;ratioP1;P1;durP2;ratioP2;P2;SDS_P1;SDS_P2;PMS_P1;PMS_P2;Temp;Humidity;BMP_temperature;BMP_pressure;BME280_temperature;BME280_humidity;BME280_pressure;Samples;Min_cycle;Max_cycle;Signal;HPM_P1;HPM_P2
2021/09/27 00:01:18;;;;;;;3.80;1.90;;;16.00;99.90;;;;;;4976912;28;20899;-85
2021/09/27 00:03:45;;;;;;;1.13;1.00;;;15.90;99.90;;;;;;4976785;28;20449;-81
2021/09/27 00:06:14;;;;;;;3.73;1.60;;;15.90;99.90;;;;;;4976684;28;20452;-81
2021/09/27 00:08:40;;;;;;;2.50;1.20;;;15.80;99.90;;;;;;4976358;28;20485;-81
2021/09/27 00:11:11;;;;;;;4.33;1.73;;;15.90;99.90;;;;;;4976202;28;20457;-81
2021/09/27 00:13:41;;;;;;;0.80;0.80;;;15.80;99.90;;;;;;4976481;28;20489;-80
2021/09/27 00:16:09;;;;;;;1.67;0.80;;;15.80;99.90;;;;;;4976476;28;20453;-80
2021/09/27 00:18:38;;;;;;;2.57;1.70;;;15.80;99.90;;;;;;4976135;28;20460;-81
2021/09/27 00:21:07;;;;;;;2.63;1.00;;;15.80;99.90;;;;;;4976310;28;20484;-81
2021/09/27 00:23:35;;;;;;;2.43;1.20;;;15.80;99.90;;;;;;4976357;28;20456;-81
2021/09/27 00:26:04;;;;;;;1.80;1.10;;;15.80;99.90;;;;;;4976002;28;20941;-81
2021/09/27 00:28:31;;;;;;;3.40;1.63;;;15.70;99.90;;;;;;4976249;28;20446;-81
2021/09/27 00:30:58;;;;;;;1.03;0.83;;;15.70;99.90;;;;;;4976148;28;20469;-81
2021/09/27 00:33:26;;;;;;;2.60;1.10;;;15.70;99.90;;;;;;4976369;28;20449;-81
2021/09/27 00:35:55;;;;;;;3.07;1.10;;;15.70;99.90;;;;;;4976016;28;20493;-81
2021/09/27 00:38:22;;;;;;;2.50;1.23;;;15.60;99.90;;;;;;4975750;28;20456;-81
2021/09/27 00:40:52;;;;;;;1.83;1.00;;;15.60;99.90;;;;;;4975981;28;20481;-81
2021/09/27 00:43:19;;;;;;;3.73;1.13;;;15.60;99.90;;;;;;4975682;28;20925;-81
2021/09/27 00:45:49;;;;;;;2.13;2.00;;;15.60;99.90;;;;;;4975932;28;20445;-81
2021/09/27 00:48:16;;;;;;;4.70;1.10;;;15.60;99.90;;;;;;4975878;28;20450;-81
2021/09/27 00:50:46;;;;;;;1.53;1.30;;;15.50;99.90;;;;;;4975783;28;20476;-81
2021/09/27 00:53:20;;;;;;;1.57;1.20;;;15.50;99.90;;;;;;4975452;28;20941;-81
2021/09/27 00:55:47;;;;;;;3.03;1.30;;;15.50;99.90;;;;;;4975673;28;20473;-81
2021/09/27 00:58:17;;;;;;;4.67;1.50;;;15.50;99.90;;;;;;4976218;28;20472;-81
2021/09/27 01:00:44;;;;;;;1.80;1.23;;;15.50;99.90;;;;;;4975431;28;20480;-81
2021/09/27 01:03:11;;;;;;;1.67;1.53;;;15.50;99.90;;;;;;4975356;28;20452;-81
2021/09/27 01:05:43;;;;;;;2.20;1.40;;;15.50;99.90;;;;;;4975294;28;20949;-81
2021/09/27 01:08:22;;;;;;;2.70;1.43;;;15.40;99.90;;;;;;4975359;28;20806;-81
2021/09/27 01:11:03;;;;;;;1.83;1.23;;;15.40;99.90;;;;;;4975666;28;20473;-81
2021/09/27 01:13:52;;;;;;;1.53;1.47;;;15.50;99.90;;;;;;4975616;28;20453;-81
2021/09/27 01:16:24;;;;;;;1.53;1.10;;;15.40;99.90;;;;;;4975399;28;20778;-81
2021/09/27 01:19:04;;;;;;;2.47;1.20;;;15.40;99.90;;;;;;4975355;28;20437;-81
2021/09/27 01:21:39;;;;;;;5.03;1.10;;;15.40;99.90;;;;;;4974929;28;20973;-81
2021/09/27 01:25:03;;;;;;;1.33;1.17;;;15.40;99.90;;;;;;4975274;28;20430;-81
2021/09/27 01:27:54;;;;;;;2.33;0.90;;;15.40;99.90;;;;;;4975163;28;20450;-81
2021/09/27 01:30:51;;;;;;;2.50;0.97;;;15.40;99.90;;;;;;4975101;28;20474;-81
2021/09/27 01:33:23;;;;;;;3.60;1.90;;;15.40;99.90;;;;;;4974857;28;20473;-81
2021/09/27 01:36:02;;;;;;;2.53;1.10;;;15.40;99.90;;;;;;4974690;28;20520;-81
2021/09/27 01:38:33;;;;;;;0.70;0.63;;;15.40;99.90;;;;;;4975046;28;20797;-81
2021/09/27 01:41:12;;;;;;;2.03;1.43;;;15.40;99.90;;;;;;4974948;28;20840;-81
2021/09/27 01:43:44;;;;;;;4.40;1.73;;;15.40;99.90;;;;;;4974655;28;20472;-81
2021/09/27 01:46:19;;;;;;;1.73;1.00;;;15.30;99.90;;;;;;4974638;28;20905;-81
2021/09/27 01:48:53;;;;;;;2.67;1.40;;;15.40;99.90;;;;;;4974598;28;20950;-81
2021/09/27 01:51:26;;;;;;;2.57;0.70;;;15.30;99.90;;;;;;4974990;28;20481;-86
2021/09/27 01:53:59;;;;;;;5.23;1.63;;;15.30;99.90;;;;;;4975062;28;20445;-86
2021/09/27 01:56:32;;;;;;;1.60;0.97;;;15.30;99.90;;;;;;4974742;28;20430;-86
2021/09/27 01:59:06;;;;;;;1.70;1.60;;;15.30;99.90;;;;;;4974910;28;20438;-86
2021/09/27 02:01:41;;;;;;;2.80;0.90;;;15.30;99.90;;;;;;4974697;28;20942;-86
2021/09/27 02:04:13;;;;;;;1.70;0.90;;;15.20;99.90;;;;;;4975049;28;20458;-86
2021/09/27 02:06:43;;;;;;;0.77;0.77;;;15.20;99.90;;;;;;4975031;28;20441;-86
2021/09/27 02:09:14;;;;;;;7.90;1.67;;;15.20;99.90;;;;;;4974536;28;20484;-86
2021/09/27 02:11:43;;;;;;;2.97;1.10;;;15.20;99.90;;;;;;4974672;28;20445;-86
2021/09/27 02:14:16;;;;;;;5.30;1.40;;;15.20;99.90;;;;;;4974446;28;20504;-81
2021/09/27 02:16:49;;;;;;;3.43;1.10;;;15.20;99.90;;;;;;4974595;28;20442;-81
2021/09/27 02:19:31;;;;;;;2.93;0.77;;;15.20;99.90;;;;;;4974221;28;20438;-81
2021/09/27 02:22:06;;;;;;;1.17;0.80;;;15.20;99.90;;;;;;4974526;28;20445;-81
2021/09/27 02:24:40;;;;;;;1.57;1.13;;;15.30;99.90;;;;;;4974528;28;20433;-81
2021/09/27 02:27:06;;;;;;;4.10;1.40;;;15.30;99.90;;;;;;4974188;28;20801;-80
2021/09/27 02:29:34;;;;;;;1.90;0.90;;;15.30;99.90;;;;;;4974044;28;20839;-81
2021/09/27 02:32:08;;;;;;;1.30;0.90;;;15.30;99.90;;;;;;4974086;28;20953;-81
2021/09/27 02:34:44;;;;;;;1.67;1.57;;;15.20;99.90;;;;;;4974360;28;20477;-81
2021/09/27 02:37:17;;;;;;;2.97;1.77;;;15.30;99.90;;;;;;4974447;28;20812;-81
2021/09/27 02:39:51;;;;;;;2.03;1.33;;;15.30;99.90;;;;;;4974319;28;20473;-81
2021/09/27 02:42:26;;;;;;;2.30;1.03;;;15.30;99.90;;;;;;4974357;28;20434;-81
2021/09/27 02:44:53;;;;;;;2.40;1.77;;;15.20;99.90;;;;;;4974295;28;20434;-81
2021/09/27 02:47:27;;;;;;;3.23;1.20;;;15.20;99.90;;;;;;4974268;28;20449;-81
2021/09/27 02:49:57;;;;;;;1.97;1.87;;;15.30;99.90;;;;;;4974239;28;20473;-81
2021/09/27 02:52:25;;;;;;;1.20;1.10;;;15.20;99.90;;;;;;4974272;28;20492;-81
2021/09/27 02:54:55;;;;;;;2.90;1.33;;;15.30;99.90;;;;;;4973856;28;20492;-81
2021/09/27 02:57:56;;;;;;;1.00;0.77;;;15.30;99.90;;;;;;4974208;28;20445;-81
2021/09/27 03:00:29;;;;;;;2.10;1.10;;;15.30;99.90;;;;;;4964131;28;20485;-81
2021/09/27 03:03:11;;;;;;;1.93;0.97;;;15.30;99.90;;;;;;4974230;28;20449;-81
2021/09/27 03:05:53;;;;;;;1.30;0.87;;;15.30;99.90;;;;;;4974145;28;20856;-81
2021/09/27 03:08:46;;;;;;;3.77;1.37;;;15.30;99.90;;;;;;4973915;28;20440;-81
2021/09/27 03:11:44;;;;;;;1.70;0.97;;;15.30;99.90;;;;;;4974085;28;20469;-81
2021/09/27 03:14:23;;;;;;;3.20;1.20;;;15.30;99.90;;;;;;4974041;28;20457;-81
2021/09/27 03:16:55;;;;;;;1.07;0.90;;;15.30;99.90;;;;;;4973761;28;20909;-81
2021/09/27 03:19:37;;;;;;;2.00;1.90;;;15.30;99.90;;;;;;4973956;28;20445;-81
2021/09/27 03:22:16;;;;;;;1.47;0.90;;;15.30;99.90;;;;;;4974030;28;20433;-81
2021/09/27 03:24:56;;;;;;;1.90;1.00;;;15.30;99.90;;;;;;4974411;28;20421;-81
2021/09/27 03:27:30;;;;;;;2.80;0.80;;;15.30;99.90;;;;;;4977421;28;20532;-81
2021/09/27 03:30:08;;;;;;;3.77;0.97;;;15.30;99.90;;;;;;4977291;28;20472;-81
2021/09/27 03:32:51;;;;;;;1.33;1.00;;;15.40;99.90;;;;;;4977868;28;20434;-81
2021/09/27 03:35:24;;;;;;;1.50;0.73;;;15.40;99.90;;;;;;4977178;28;20477;-81
2021/09/27 03:38:01;;;;;;;2.20;0.90;;;15.40;99.90;;;;;;4977217;28;20441;-81
2021/09/27 03:40:39;;;;;;;1.50;0.60;;;15.40;99.90;;;;;;4976802;28;20472;-81
2021/09/27 03:43:14;;;;;;;1.60;0.93;;;15.40;99.90;;;;;;4977137;28;20508;-81
2021/09/27 03:45:51;;;;;;;3.40;1.07;;;15.30;99.90;;;;;;4976768;28;20433;-81
2021/09/27 03:48:24;;;;;;;1.57;0.67;;;15.30;99.90;;;;;;4977084;28;20437;-81
2021/09/27 03:50:56;;;;;;;2.17;1.37;;;15.30;99.90;;;;;;4976920;28;20473;-81
2021/09/27 03:53:30;;;;;;;1.40;1.30;;;15.30;99.90;;;;;;4976648;28;20488;-81
2021/09/27 03:56:03;;;;;;;1.73;1.60;;;15.30;99.90;;;;;;4976831;28;20479;-81
2021/09/27 03:58:32;;;;;;;1.13;0.73;;;15.20;99.90;;;;;;4976851;28;20500;-81
2021/09/27 04:01:05;;;;;;;2.77;1.00;;;15.20;99.90;;;;;;4976713;28;20474;-81
2021/09/27 04:03:53;;;;;;;2.10;0.90;;;15.20;99.90;;;;;;4976813;28;20445;-81
2021/09/27 04:06:34;;;;;;;1.37;0.80;;;15.10;99.90;;;;;;4976785;28;20809;-81
2021/09/27 04:09:07;;;;;;;1.53;0.77;;;15.10;99.90;;;;;;4976486;28;20485;-81
2021/09/27 04:11:39;;;;;;;1.30;0.90;;;15.00;99.90;;;;;;4976665;28;20488;-81
2021/09/27 04:14:14;;;;;;;1.93;1.83;;;14.90;99.90;;;;;;4976297;28;20805;-81
2021/09/27 04:16:50;;;;;;;0.60;0.60;;;14.90;99.90;;;;;;4976449;28;20472;-81
2021/09/27 04:19:24;;;;;;;1.90;1.43;;;14.90;99.90;;;;;;4976431;28;20433;-81
2021/09/27 04:21:59;;;;;;;1.93;1.10;;;14.80;99.90;;;;;;4976636;28;20434;-81
2021/09/27 04:24:44;;;;;;;1.57;1.00;;;14.80;99.90;;;;;;4976667;28;20429;-81
2021/09/27 04:27:30;;;;;;;0.70;0.70;;;14.80;99.90;;;;;;4976301;28;20448;-81
2021/09/27 04:30:43;;;;;;;4.80;0.97;;;14.70;99.90;;;;;;4975911;28;20508;-81
2021/09/27 04:33:22;;;;;;;1.50;0.80;;;14.70;99.90;;;;;;4916424;29;20448;-81
2021/09/27 04:35:57;;;;;;;3.23;1.10;;;14.70;99.90;;;;;;4915927;29;20523;-81
2021/09/27 04:38:24;;;;;;;1.57;1.47;;;14.60;99.90;;;;;;4956721;28;20451;-81
2021/09/27 04:41:17;;;;;;;0.87;0.80;;;14.60;99.90;;;;;;4975950;28;20474;-81
2021/09/27 04:43:55;;;;;;;3.30;1.30;;;14.60;99.90;;;;;;4976258;28;20429;-81
2021/09/27 04:46:29;;;;;;;1.10;0.70;;;14.60;99.90;;;;;;4975683;28;20909;-81
2021/09/27 04:49:04;;;;;;;3.10;1.23;;;14.50;99.90;;;;;;4975940;28;20446;-81
2021/09/27 04:51:51;;;;;;;2.27;1.70;;;14.50;99.90;;;;;;4975507;28;21007;-81
2021/09/27 04:54:52;;;;;;;3.03;0.93;;;14.50;99.90;;;;;;4975818;28;20456;-81
2021/09/27 04:57:26;;;;;;;0.70;0.60;;;14.50;99.90;;;;;;4975774;28;20789;-81
2021/09/27 05:00:16;;;;;;;2.70;1.63;;;14.50;99.90;;;;;;4975621;28;20582;-81
2021/09/27 05:03:13;;;;;;;1.20;1.00;;;14.50;99.90;;;;;;4975638;28;20434;-81
2021/09/27 05:05:51;;;;;;;0.93;0.60;;;14.40;99.90;;;;;;4930056;28;20437;-81
2021/09/27 05:08:36;;;;;;;1.37;1.27;;;14.40;99.90;;;;;;4975562;28;20429;-81
2021/09/27 05:11:20;;;;;;;1.20;1.10;;;14.40;99.90;;;;;;4975474;28;20866;-81
2021/09/27 05:14:17;;;;;;;1.97;0.97;;;14.30;99.90;;;;;;4975746;28;20418;-81
2021/09/27 05:16:56;;;;;;;2.63;1.60;;;14.20;99.90;;;;;;4975339;28;20473;-81
2021/09/27 05:19:42;;;;;;;1.07;0.93;;;14.30;99.90;;;;;;4975711;28;20453;-81
2021/09/27 05:22:34;;;;;;;1.37;1.17;;;14.30;99.90;;;;;;4975322;28;20434;-81
2021/09/27 05:25:28;;;;;;;2.90;0.90;;;14.30;99.90;;;;;;4975275;28;20438;-81
2021/09/27 05:28:09;;;;;;;1.20;0.70;;;14.20;99.90;;;;;;4974927;28;20434;-81
2021/09/27 05:30:55;;;;;;;2.60;1.67;;;14.20;99.90;;;;;;4975459;28;20473;-81
2021/09/27 05:33:30;;;;;;;2.23;0.83;;;14.10;99.90;;;;;;4975109;28;20445;-81
2021/09/27 05:36:12;;;;;;;1.53;1.00;;;14.10;99.90;;;;;;4975267;28;20474;-80
2021/09/27 05:38:47;;;;;;;1.80;1.10;;;14.10;99.90;;;;;;4975069;28;20772;-81
2021/09/27 05:41:23;;;;;;;0.53;0.50;;;14.10;99.90;;;;;;4974965;28;20477;-81
2021/09/27 05:44:02;;;;;;;1.50;1.40;;;14.10;99.90;;;;;;4974946;28;20433;-81
2021/09/27 05:46:49;;;;;;;1.90;1.00;;;14.10;99.90;;;;;;4974931;28;20429;-81
2021/09/27 05:49:24;;;;;;;0.57;0.57;;;14.20;99.90;;;;;;4973991;28;20861;-81
2021/09/27 05:51:57;;;;;;;1.20;1.10;;;14.20;99.90;;;;;;4974824;28;20430;-81
2021/09/27 05:54:30;;;;;;;2.83;2.30;;;14.20;99.90;;;;;;4974520;28;20833;-81
2021/09/27 05:57:03;;;;;;;0.80;0.80;;;14.20;99.90;;;;;;4974789;28;20560;-81
2021/09/27 05:59:48;;;;;;;1.50;1.40;;;14.20;99.90;;;;;;4975111;28;20536;-81
2021/09/27 06:02:32;;;;;;;2.93;0.73;;;14.20;99.90;;;;;;4974810;28;20437;-81
2021/09/27 06:05:11;;;;;;;1.50;0.90;;;14.30;99.90;;;;;;4974461;28;20928;-81
2021/09/27 06:07:43;;;;;;;1.40;1.30;;;14.30;99.90;;;;;;4974689;28;20433;-81
2021/09/27 06:10:19;;;;;;;2.80;2.00;;;14.40;99.90;;;;;;4974133;28;20890;-81
2021/09/27 06:12:51;;;;;;;1.20;0.87;;;14.40;99.90;;;;;;4974654;28;20441;-81
2021/09/27 06:15:20;;;;;;;1.25;1.15;;;14.50;99.90;;;;;;4974681;28;20440;-85
2021/09/27 06:18:09;;;;;;;1.77;0.80;;;14.60;99.90;;;;;;4974739;28;20449;-85
2021/09/27 06:20:47;;;;;;;1.13;0.90;;;14.70;99.90;;;;;;4974626;28;20505;-85
2021/09/27 06:23:46;;;;;;;2.03;1.57;;;14.70;99.90;;;;;;4974664;28;20512;-85
2021/09/27 06:26:15;;;;;;;1.67;1.57;;;14.80;99.90;;;;;;4967880;28;20983;-86
2021/09/27 06:28:47;;;;;;;1.90;1.20;;;14.80;99.90;;;;;;4974702;28;20456;-85
2021/09/27 06:31:24;;;;;;;2.17;1.23;;;14.80;99.90;;;;;;4974638;28;20472;-85
2021/09/27 06:33:57;;;;;;;1.80;1.03;;;14.70;99.90;;;;;;4974542;28;20433;-85
2021/09/27 06:36:28;;;;;;;2.40;0.80;;;14.70;99.90;;;;;;4975021;28;20469;-80
2021/09/27 06:38:59;;;;;;;2.07;0.90;;;14.80;99.90;;;;;;4974456;28;20437;-80
2021/09/27 06:41:28;;;;;;;0.77;0.77;;;14.80;99.90;;;;;;4974329;28;20475;-80
2021/09/27 06:43:55;;;;;;;1.87;1.67;;;14.80;99.90;;;;;;4974251;28;20457;-80
2021/09/27 06:46:22;;;;;;;0.50;0.50;;;14.90;99.90;;;;;;4974312;28;20429;-80
2021/09/27 06:48:49;;;;;;;2.77;1.10;;;14.90;99.90;;;;;;4974271;28;20449;-80
2021/09/27 06:51:17;;;;;;;2.40;0.93;;;14.90;99.90;;;;;;4974196;28;20813;-80
2021/09/27 06:53:44;;;;;;;1.17;1.17;;;15.00;99.90;;;;;;4974210;28;20456;-85
2021/09/27 06:56:12;;;;;;;2.10;0.60;;;15.00;99.90;;;;;;4974300;28;20877;-85
2021/09/27 06:58:38;;;;;;;2.90;1.13;;;15.00;99.90;;;;;;4974451;28;20949;-86
2021/09/27 07:01:05;;;;;;;2.43;1.03;;;15.10;99.90;;;;;;4978064;28;20502;-85
2021/09/27 07:03:32;;;;;;;1.10;1.00;;;15.10;99.90;;;;;;4977739;28;20949;-85
2021/09/27 07:05:59;;;;;;;0.50;0.50;;;15.10;99.90;;;;;;4978033;28;20446;-85
2021/09/27 07:08:27;;;;;;;2.03;1.20;;;15.10;99.90;;;;;;4977977;28;20984;-86
2021/09/27 07:10:54;;;;;;;0.87;0.87;;;15.10;99.90;;;;;;4977938;28;20480;-86
2021/09/27 07:13:21;;;;;;;2.77;1.50;;;15.10;99.90;;;;;;4978017;28;20449;-85
2021/09/27 07:15:48;;;;;;;0.50;0.50;;;15.20;99.90;;;;;;4977563;28;20437;-86
2021/09/27 07:18:15;;;;;;;1.83;1.03;;;15.30;99.90;;;;;;4977889;28;20862;-86
2021/09/27 07:20:43;;;;;;;1.33;0.77;;;15.30;99.90;;;;;;4977702;28;20469;-86
2021/09/27 07:23:09;;;;;;;2.17;0.80;;;15.40;99.90;;;;;;4977695;28;20449;-86
2021/09/27 07:25:38;;;;;;;1.37;0.80;;;15.40;99.90;;;;;;4977518;28;20488;-86
2021/09/27 07:28:05;;;;;;;2.20;0.70;;;15.50;99.90;;;;;;4977728;28;20453;-86
2021/09/27 07:30:32;;;;;;;0.87;0.83;;;15.60;99.90;;;;;;4977515;28;20477;-86
2021/09/27 07:32:59;;;;;;;1.40;0.87;;;15.70;99.90;;;;;;4977327;28;20437;-86
2021/09/27 07:35:29;;;;;;;1.07;0.80;;;15.80;99.90;;;;;;4977374;28;20445;-85
2021/09/27 07:37:56;;;;;;;1.13;0.90;;;15.90;99.90;;;;;;4977057;28;21019;-86
2021/09/27 07:40:26;;;;;;;1.43;1.33;;;16.00;99.90;;;;;;4977362;28;20477;-86
2021/09/27 07:42:54;;;;;;;3.03;1.03;;;16.10;99.90;;;;;;4977601;28;20433;-86
2021/09/27 07:45:24;;;;;;;0.73;0.73;;;16.20;99.90;;;;;;4977400;28;20810;-86
2021/09/27 07:47:51;;;;;;;2.13;1.53;;;16.30;99.90;;;;;;4977632;28;20521;-86
2021/09/27 07:50:18;;;;;;;2.40;1.53;;;16.40;99.90;;;;;;4977464;28;20473;-86
2021/09/27 07:52:45;;;;;;;0.90;0.70;;;16.50;99.90;;;;;;4977548;28;20831;-86
2021/09/27 07:55:13;;;;;;;0.90;0.50;;;16.50;99.90;;;;;;4977418;28;20496;-87
2021/09/27 07:57:40;;;;;;;1.27;1.17;;;16.60;99.90;;;;;;4977292;28;20492;-87
2021/09/27 08:00:11;;;;;;;1.43;0.67;;;16.70;99.90;;;;;;4977278;28;20476;-88
2021/09/27 08:02:37;;;;;;;0.87;0.87;;;16.90;99.90;;;;;;4977410;28;20453;-87
2021/09/27 08:05:05;;;;;;;1.60;0.70;;;17.00;99.90;;;;;;4976997;28;20441;-88
2021/09/27 08:07:32;;;;;;;0.90;0.80;;;17.20;99.90;;;;;;4977305;28;20449;-87
2021/09/27 08:09:58;;;;;;;1.60;0.70;;;17.30;99.90;;;;;;4976642;28;20488;-88
2021/09/27 08:12:25;;;;;;;8.27;1.40;;;17.40;99.90;;;;;;4976632;28;20464;-89
2021/09/27 08:14:54;;;;;;;2.13;1.43;;;17.50;99.90;;;;;;4977459;28;20445;-87
2021/09/27 08:17:22;;;;;;;0.83;0.70;;;17.60;99.90;;;;;;4977190;28;20481;-88
2021/09/27 08:19:49;;;;;;;2.77;0.83;;;17.70;99.90;;;;;;4977106;28;20473;-88
2021/09/27 08:22:15;;;;;;;4.30;1.70;;;17.80;99.90;;;;;;4977136;28;20458;-88
2021/09/27 08:24:42;;;;;;;0.80;0.70;;;18.00;99.90;;;;;;4977063;28;20453;-88
2021/09/27 08:27:09;;;;;;;0.80;0.60;;;18.10;99.90;;;;;;4976894;28;20945;-88
2021/09/27 08:29:36;;;;;;;1.80;0.80;;;18.30;99.90;;;;;;4977129;28;20465;-89
2021/09/27 08:32:03;;;;;;;0.70;0.70;;;18.40;99.90;;;;;;4977154;28;20438;-89
2021/09/27 08:34:31;;;;;;;1.20;0.93;;;18.40;99.90;;;;;;4977050;28;20456;-89
2021/09/27 08:36:58;;;;;;;0.50;0.40;;;18.50;99.90;;;;;;4976577;28;21039;-89
2021/09/27 08:39:25;;;;;;;1.00;0.83;;;18.70;99.90;;;;;;4976777;28;20461;-89
2021/09/27 08:41:57;;;;;;;1.97;0.90;;;18.80;99.90;;;;;;4976527;28;20470;-89
2021/09/27 08:44:36;;;;;;;1.53;1.10;;;18.70;99.90;;;;;;4977020;28;20438;-89
2021/09/27 08:47:08;;;;;;;0.90;0.90;;;18.80;99.90;;;;;;4976912;28;20425;-89
2021/09/27 08:49:43;;;;;;;2.43;0.73;;;19.00;99.90;;;;;;4976851;28;20469;-89
2021/09/27 08:52:14;;;;;;;0.93;0.70;;;19.10;99.90;;;;;;4976884;28;20492;-90
2021/09/27 08:54:41;;;;;;;2.20;1.50;;;19.30;99.90;;;;;;4976704;28;20442;-90
2021/09/27 08:57:14;;;;;;;1.43;0.60;;;19.60;99.90;;;;;;4976536;28;20484;-90
2021/09/27 08:59:49;;;;;;;1.70;0.90;;;19.80;99.90;;;;;;4976847;28;20485;-90
2021/09/27 09:02:38;;;;;;;1.30;1.07;;;20.20;99.90;;;;;;4976468;28;20432;-90
2021/09/27 09:05:12;;;;;;;0.70;0.60;;;20.50;99.90;;;;;;4976168;28;20449;-90
2021/09/27 09:07:46;;;;;;;1.13;0.93;;;21.00;99.90;;;;;;4976624;28;20440;-90
2021/09/27 09:10:16;;;;;;;1.27;0.90;;;21.60;99.90;;;;;;4976117;28;20859;-90
2021/09/27 09:12:48;;;;;;;1.70;0.90;;;22.20;99.90;;;;;;4976335;28;20489;-90
2021/09/27 09:15:18;;;;;;;2.03;0.77;;;22.90;99.90;;;;;;4976416;28;20193;-90
2021/09/27 09:17:51;;;;;;;1.50;0.80;;;23.30;99.90;;;;;;4976294;28;20216;-90
2021/09/27 09:20:25;;;;;;;0.77;0.60;;;23.90;99.90;;;;;;4976308;28;20236;-90
2021/09/27 09:22:53;;;;;;;1.15;0.80;;;24.10;99.90;;;;;;4976018;28;20198;-91
2021/09/27 09:25:27;;;;;;;0.90;0.80;;;23.90;99.90;;;;;;4975921;28;20220;-91
2021/09/27 09:27:54;;;;;;;1.33;0.97;;;23.70;99.90;;;;;;4976175;28;20189;-90
2021/09/27 09:30:26;;;;;;;1.00;0.90;;;23.60;99.90;;;;;;4975916;28;20284;-91
2021/09/27 09:32:54;;;;;;;0.73;0.60;;;23.60;99.90;;;;;;4976116;28;20201;-90
2021/09/27 09:35:25;;;;;;;0.67;0.67;;;23.50;99.90;;;;;;4976050;28;20210;-90
2021/09/27 09:37:55;;;;;;;1.40;0.83;;;23.40;99.90;;;;;;4976051;28;20213;-91
2021/09/27 09:40:25;;;;;;;0.82;0.75;;;23.30;99.90;;;;;;4975923;28;20229;-91
2021/09/27 09:43:01;;;;;;;0.90;0.90;;;23.20;99.90;;;;;;4976331;28;20201;-91
2021/09/27 09:45:31;;;;;;;1.00;0.90;;;23.10;99.90;;;;;;4975964;28;20775;-91
2021/09/27 09:48:20;;;;;;;1.33;0.77;;;22.90;99.90;;;;;;4976043;28;20648;-90
2021/09/27 09:50:52;;;;;;;1.10;0.60;;;23.00;99.90;;;;;;4975971;28;20234;-90
2021/09/27 09:53:26;;;;;;;0.80;0.70;;;23.20;99.90;;;;;;4976584;28;20185;-90
2021/09/27 09:55:58;;;;;;;0.90;0.63;;;23.20;99.90;;;;;;4975452;28;20707;-90
2021/09/27 09:58:39;;;;;;;0.60;0.60;;;23.10;99.90;;;;;;4975712;28;20205;-90
2021/09/27 10:01:13;;;;;;;0.50;0.50;;;23.10;99.90;;;;;;4975780;28;20469;-90
2021/09/27 10:03:43;;;;;;;1.13;1.00;;;23.40;99.90;;;;;;4975470;28;20425;-91
2021/09/27 10:06:17;;;;;;;0.60;0.60;;;23.60;99.90;;;;;;4976735;28;20205;-90
2021/09/27 10:08:52;;;;;;;0.87;0.50;;;23.80;99.90;;;;;;4975443;28;20225;-90
2021/09/27 10:11:29;;;;;;;1.40;0.80;;;24.00;99.90;;;;;;4975954;28;20251;-91
2021/09/27 10:13:56;;;;;;;1.37;0.80;;;24.10;99.90;;;;;;4975267;28;20673;-90
2021/09/27 10:16:39;;;;;;;0.50;0.50;;;24.10;99.90;;;;;;4975407;28;20756;-91
2021/09/27 10:19:23;;;;;;;1.20;0.70;;;24.10;99.90;;;;;;4975228;28;20190;-90
2021/09/27 10:21:57;;;;;;;0.90;0.80;;;24.20;99.90;;;;;;4975397;28;20229;-90
2021/09/27 10:24:32;;;;;;;1.20;0.75;;;24.40;99.90;;;;;;4975443;28;20192;-90
2021/09/27 10:27:01;;;;;;;0.70;0.50;;;24.70;99.90;;;;;;4975533;28;20189;-91
2021/09/27 10:29:30;;;;;;;1.27;0.50;;;25.40;99.90;;;;;;4975167;28;20213;-90
2021/09/27 10:32:00;;;;;;;0.70;0.60;;;26.10;99.90;;;;;;4975335;28;20205;-90
2021/09/27 10:34:31;;;;;;;0.95;0.63;;;27.40;99.90;;;;;;4976852;28;20204;-90
2021/09/27 10:37:07;;;;;;;0.60;0.60;;;27.80;99.90;;;;;;4979231;28;20205;-90
2021/09/27 10:39:34;;;;;;;1.80;0.65;;;27.70;99.50;;;;;;4979209;28;20221;-90
2021/09/27 10:42:05;;;;;;;0.52;0.50;;;28.00;97.90;;;;;;4979293;28;20205;-90
2021/09/27 10:44:36;;;;;;;0.52;0.52;;;28.60;97.50;;;;;;4979225;28;20228;-91
2021/09/27 10:47:06;;;;;;;1.55;0.80;;;28.70;95.20;;;;;;4979167;28;20182;-90
2021/09/27 10:49:36;;;;;;;0.60;0.60;;;28.30;95.10;;;;;;4978952;28;20232;-91
2021/09/27 10:52:24;;;;;;;0.60;0.60;;;28.00;94.60;;;;;;4978887;28;20198;-91
2021/09/27 10:54:58;;;;;;;0.60;0.55;;;27.50;95.20;;;;;;4979020;28;20194;-91
2021/09/27 10:57:37;;;;;;;0.65;0.63;;;26.70;95.00;;;;;;4978925;28;20260;-91
2021/09/27 11:00:15;;;;;;;0.47;0.45;;;26.10;97.00;;;;;;4978759;28;20221;-90
2021/09/27 11:02:47;;;;;;;0.80;0.70;;;25.30;96.90;;;;;;4978565;28;20196;-86
2021/09/27 11:05:31;;;;;;;1.80;0.50;;;24.80;97.50;;;;;;4977675;28;20712;-85
2021/09/27 11:08:08;;;;;;;1.35;0.60;;;24.20;99.20;;;;;;4977934;28;20185;-86
2021/09/27 11:10:42;;;;;;;0.50;0.50;;;23.90;99.90;;;;;;4977940;28;20228;-88
2021/09/27 11:13:16;;;;;;;0.80;0.55;;;23.40;99.90;;;;;;4977589;28;20724;-86
2021/09/27 11:15:52;;;;;;;0.60;0.60;;;23.00;99.90;;;;;;4977905;28;20220;-86
2021/09/27 11:18:28;;;;;;;1.13;0.67;;;22.90;99.90;;;;;;4977894;28;20206;-86
2021/09/27 11:21:17;;;;;;;2.00;0.63;;;22.70;99.90;;;;;;4978307;28;20229;-90
2021/09/27 11:23:46;;;;;;;0.57;0.50;;;22.60;99.90;;;;;;4978758;28;20225;-90
2021/09/27 11:26:31;;;;;;;0.97;0.50;;;22.50;99.90;;;;;;4978433;28;20212;-90
2021/09/27 11:29:30;;;;;;;0.60;0.60;;;22.30;99.90;;;;;;4978886;28;20777;-90
2021/09/27 11:32:25;;;;;;;0.47;0.43;;;22.20;99.90;;;;;;4978386;28;20869;-90
2021/09/27 11:34:58;;;;;;;0.93;0.80;;;22.00;99.90;;;;;;4978556;28;20433;-90
2021/09/27 11:37:27;;;;;;;0.80;0.63;;;22.00;99.90;;;;;;4978158;28;20875;-90
2021/09/27 11:40:24;;;;;;;0.50;0.47;;;22.10;99.90;;;;;;4978006;28;20469;-87
2021/09/27 11:42:55;;;;;;;1.03;0.50;;;22.20;99.90;;;;;;4975595;28;20487;-90
2021/09/27 11:45:37;;;;;;;0.70;0.70;;;22.30;99.90;;;;;;4976929;28;20449;-90
2021/09/27 11:48:10;;;;;;;1.13;0.60;;;22.30;99.90;;;;;;4978110;28;20774;-90
2021/09/27 11:51:05;;;;;;;0.70;0.70;;;22.20;99.90;;;;;;4977427;28;20472;-87
2021/09/27 11:53:41;;;;;;;0.80;0.60;;;22.30;99.90;;;;;;4976888;28;20429;-85
2021/09/27 11:56:15;;;;;;;2.20;0.60;;;22.20;99.90;;;;;;4977149;28;20443;-85
2021/09/27 11:58:47;;;;;;;0.80;0.50;;;22.20;99.90;;;;;;4977016;28;20491;-85
2021/09/27 12:01:24;;;;;;;0.80;0.60;;;22.20;99.90;;;;;;4977235;28;20480;-87
2021/09/27 12:03:58;;;;;;;0.70;0.50;;;22.30;99.90;;;;;;4977074;28;20837;-85
2021/09/27 12:06:31;;;;;;;0.50;0.50;;;22.30;99.90;;;;;;4976943;28;20458;-86
2021/09/27 12:09:03;;;;;;;0.53;0.53;;;22.30;99.90;;;;;;4976393;28;20500;-86
2021/09/27 12:11:33;;;;;;;1.17;0.97;;;22.20;99.90;;;;;;4976745;28;20583;-86
2021/09/27 12:14:02;;;;;;;0.53;0.53;;;22.20;99.90;;;;;;4976870;28;20194;-85
2021/09/27 12:16:30;;;;;;;0.70;0.50;;;22.20;99.90;;;;;;4976719;28;20216;-85
2021/09/27 12:19:01;;;;;;;1.30;0.50;;;22.10;99.90;;;;;;4976587;28;20595;-86
2021/09/27 12:21:31;;;;;;;0.70;0.50;;;22.10;99.90;;;;;;4976605;28;20260;-85
2021/09/27 12:24:08;;;;;;;3.20;0.80;;;22.10;99.90;;;;;;4976471;28;20205;-85
2021/09/27 12:26:42;;;;;;;0.60;0.60;;;22.10;99.90;;;;;;4976443;28;20443;-86
2021/09/27 12:29:13;;;;;;;1.23;0.60;;;22.10;99.90;;;;;;4976462;28;20468;-85
2021/09/27 12:31:45;;;;;;;0.93;0.60;;;22.10;99.90;;;;;;4976556;28;20209;-86
2021/09/27 12:34:15;;;;;;;2.00;0.60;;;22.10;99.90;;;;;;4976950;28;20827;-85
2021/09/27 12:36:42;;;;;;;0.83;0.60;;;21.90;99.90;;;;;;4976352;28;20437;-86
2021/09/27 12:39:09;;;;;;;1.00;0.70;;;21.80;99.90;;;;;;4976005;28;20848;-85
2021/09/27 12:41:39;;;;;;;0.60;0.50;;;21.70;99.90;;;;;;4975977;28;20889;-86
2021/09/27 12:44:09;;;;;;;0.60;0.50;;;21.60;99.90;;;;;;4976175;28;20460;-85
2021/09/27 12:46:36;;;;;;;0.60;0.40;;;21.60;99.90;;;;;;4976188;28;20433;-85
2021/09/27 12:49:07;;;;;;;0.50;0.40;;;21.60;99.90;;;;;;4976063;28;20844;-85
2021/09/27 12:51:37;;;;;;;1.53;0.60;;;21.50;99.90;;;;;;4975904;28;20472;-85
2021/09/27 12:54:07;;;;;;;0.60;0.60;;;21.50;99.90;;;;;;4976680;28;20931;-82
2021/09/27 12:56:35;;;;;;;0.67;0.50;;;21.60;99.90;;;;;;4975731;28;20450;-82
2021/09/27 12:59:06;;;;;;;1.00;0.50;;;21.70;99.90;;;;;;4975681;28;20491;-81
2021/09/27 13:01:35;;;;;;;0.70;0.70;;;21.70;99.90;;;;;;4975693;28;20475;-82
2021/09/27 13:04:06;;;;;;;0.67;0.50;;;21.80;99.90;;;;;;4975656;28;20452;-82
2021/09/27 13:06:35;;;;;;;0.47;0.40;;;21.80;99.90;;;;;;4975690;28;20452;-82
2021/09/27 13:09:11;;;;;;;0.70;0.50;;;21.80;99.90;;;;;;4975121;28;20984;-82
2021/09/27 13:11:43;;;;;;;0.80;0.60;;;21.80;99.90;;;;;;4975640;28;20796;-82
2021/09/27 13:14:19;;;;;;;0.73;0.40;;;21.80;99.90;;;;;;4975566;28;20443;-82
2021/09/27 13:16:48;;;;;;;0.90;0.60;;;21.70;99.90;;;;;;4975448;28;20441;-82
2021/09/27 13:19:34;;;;;;;0.50;0.40;;;21.60;99.90;;;;;;4975288;28;20481;-82
2021/09/27 13:22:02;;;;;;;0.50;0.50;;;21.60;99.90;;;;;;4975135;28;20444;-82
2021/09/27 13:24:30;;;;;;;1.03;0.50;;;21.50;99.90;;;;;;4975331;28;20495;-82